Time;durP1;ratioP1;P1;durP2;ratioP2;P2;SDS_P1;SDS_P2;PMS_P1;PMS_P2;Temp;Humidity;BMP_temperature;BMP_pressure;BME280_temperature;BME280_humidity;BME280_pressure;Samples;Min_cycle;Max_cycle;Signal;HPM_P1;HPM_P2
2021/12/26 00:02:15;;;;;;;6.50;5.75;;;;;;;19.02;45.04;100240.56;5018226;28;20416;-80
2021/12/26 00:04:43;;;;;;;6.80;6.13;;;;;;;19.02;45.24;100243.25;5034797;28;20046;-80
2021/12/26 00:07:10;;;;;;;8.18;5.95;;;;;;;19.03;45.06;100244.09;5035577;28;20049;-80
2021/12/26 00:09:38;;;;;;;7.18;6.47;;;;;;;19.05;45.00;100242.13;5034615;28;20053;-80
2021/12/26 00:12:06;;;;;;;7.03;6.32;;;;;;;19.05;45.17;100236.78;5035112;28;20124;-80
2021/12/26 00:14:33;;;;;;;6.03;5.45;;;;;;;19.06;44.75;100226.88;5034995;28;20046;-81
2021/12/26 00:17:02;;;;;;;6.93;6.22;;;;;;;19.06;44.71;100240.28;5033163;28;20051;-80
2021/12/26 00:19:29;;;;;;;8.40;6.10;;;;;;;19.05;44.51;100231.41;5035166;28;20347;-80
2021/12/26 00:21:57;;;;;;;6.97;5.82;;;;;;;19.07;44.50;100233.94;5035714;28;20512;-80
2021/12/26 00:24:24;;;;;;;6.45;5.85;;;;;;;19.08;44.67;100238.31;5034840;28;20053;-80
2021/12/26 00:26:51;;;;;;;8.60;5.63;;;;;;;19.07;44.50;100232.09;5038082;28;20040;-80
2021/12/26 00:29:19;;;;;;;6.22;5.63;;;;;;;19.07;44.37;100232.09;5036760;28;20052;-80
2021/12/26 00:31:46;;;;;;;7.57;6.25;;;;;;;19.08;44.34;100231.13;5036645;28;20060;-80
2021/12/26 00:34:14;;;;;;;6.32;5.72;;;;;;;19.09;44.33;100238.19;5035865;28;20053;-80
2021/12/26 00:36:43;;;;;;;6.45;5.85;;;;;;;19.10;44.32;100236.34;5034050;28;20048;-79
2021/12/26 00:39:11;;;;;;;6.65;5.95;;;;;;;19.10;44.20;100231.81;5034085;28;20407;-80
2021/12/26 00:41:39;;;;;;;6.25;5.65;;;;;;;19.11;44.17;100233.50;5016129;28;20065;-79
2021/12/26 00:44:08;;;;;;;6.35;5.75;;;;;;;19.11;43.85;100233.50;5034524;28;20045;-79
2021/12/26 00:46:38;;;;;;;6.38;5.75;;;;;;;19.12;44.00;100237.03;5034133;28;20038;-80
2021/12/26 00:49:06;;;;;;;6.65;5.93;;;;;;;19.14;44.28;100238.56;5024448;28;20064;-80
2021/12/26 00:51:34;;;;;;;6.07;5.25;;;;;;;19.14;43.87;100238.56;5033475;28;20057;-81
2021/12/26 00:54:01;;;;;;;6.00;5.40;;;;;;;19.15;43.84;100240.25;5033774;28;20053;-81
2021/12/26 00:56:29;;;;;;;5.38;4.88;;;;;;;19.17;43.77;100245.50;5034459;28;20053;-81
2021/12/26 00:58:56;;;;;;;5.60;5.10;;;;;;;19.17;43.85;100234.78;5035072;28;20052;-81
2021/12/26 01:01:24;;;;;;;5.18;4.68;;;;;;;19.17;43.63;100240.97;5016333;28;20381;-81
2021/12/26 01:03:52;;;;;;;6.47;5.60;;;;;;;19.19;43.62;100249.72;5016060;28;20053;-81
2021/12/26 01:06:19;;;;;;;6.38;5.78;;;;;;;19.20;43.64;100245.19;5016533;28;20045;-80
2021/12/26 01:08:50;;;;;;;6.05;5.45;;;;;;;19.20;43.55;100243.38;5016302;28;20065;-80
2021/12/26 01:11:34;;;;;;;6.53;5.90;;;;;;;19.21;43.39;100255.78;5001461;28;20057;-80
2021/12/26 01:14:07;;;;;;;6.07;5.47;;;;;;;19.22;43.32;100257.47;5015813;28;20049;-80
2021/12/26 01:17:11;;;;;;;7.07;4.93;;;;;;;19.23;43.22;100250.28;5048523;28;20424;-80
2021/12/26 01:19:53;;;;;;;5.28;4.75;;;;;;;19.23;43.30;100258.31;5015678;28;20056;-80
2021/12/26 01:22:23;;;;;;;6.13;5.38;;;;;;;19.23;43.18;100267.22;5015951;28;20049;-80
2021/12/26 01:25:04;;;;;;;;;;;;;;;19.24;43.17;100257.31;5050927;28;20515;-80
2021/12/26 01:27:31;;;;;;;5.05;4.63;;;;;;;19.25;43.11;100275.16;5015800;28;19984;-80
2021/12/26 01:29:59;;;;;;;5.63;5.07;;;;;;;19.23;43.24;100269.91;5033978;28;20049;-80
2021/12/26 01:32:27;;;;;;;6.30;5.35;;;;;;;19.25;43.14;100280.50;5015749;28;20053;-79
2021/12/26 01:35:01;;;;;;;5.90;5.40;;;;;;;19.25;43.25;100272.47;5041799;28;20053;-81
2021/12/26 01:38:12;;;;;;;5.15;4.65;;;;;;;19.25;43.19;100277.81;4994932;28;20176;-80
2021/12/26 01:41:10;;;;;;;5.38;4.88;;;;;;;19.24;43.06;100278.78;4991961;28;20076;-80
2021/12/26 01:44:03;;;;;;;5.88;5.38;;;;;;;19.24;43.13;100274.31;4993214;28;20465;-79
2021/12/26 01:46:48;;;;;;;5.68;5.15;;;;;;;19.25;43.33;100281.34;4991670;28;20058;-80
2021/12/26 01:49:22;;;;;;;5.78;4.75;;;;;;;19.25;42.66;100284.03;4998663;28;20054;-80
2021/12/26 01:51:52;;;;;;;5.87;5.27;;;;;;;19.27;42.91;100286.56;4992455;28;20524;-79
2021/12/26 01:54:33;;;;;;;5.78;5.05;;;;;;;19.26;42.68;100288.41;4992296;28;20113;-79
2021/12/26 01:57:05;;;;;;;5.40;4.90;;;;;;;19.28;42.80;100293.63;4992515;28;20576;-80
2021/12/26 01:59:33;;;;;;;5.10;4.70;;;;;;;19.29;42.89;100286.44;4979606;28;20058;-80
2021/12/26 02:02:09;;;;;;;6.72;5.40;;;;;;;19.29;42.70;100275.69;4979893;28;20050;-80
2021/12/26 02:04:38;;;;;;;5.13;4.60;;;;;;;19.29;42.71;100279.22;4979253;28;20158;-80
2021/12/26 02:07:08;;;;;;;6.18;5.25;;;;;;;19.30;42.58;100288.13;4996136;28;20054;-80
2021/12/26 02:09:37;;;;;;;6.15;5.30;;;;;;;19.29;42.74;100273.88;5014153;28;20053;-80
2021/12/26 02:12:05;;;;;;;6.43;5.78;;;;;;;19.27;42.79;100271.31;5018943;28;20469;-80
2021/12/26 02:14:33;;;;;;;6.20;5.60;;;;;;;19.30;42.77;100269.34;5020042;28;20049;-80
2021/12/26 02:17:33;;;;;;;5.95;5.43;;;;;;;19.30;42.75;100278.22;4996284;28;20046;-80
2021/12/26 02:20:16;;;;;;;5.60;5.00;;;;;;;19.31;42.74;100274.53;4979986;28;20058;-80
2021/12/26 02:22:48;;;;;;;5.75;5.25;;;;;;;19.33;42.51;100269.06;4979676;28;20055;-80
2021/12/26 02:27:31;;;;;;;6.43;5.47;;;;;;;19.33;42.31;100259.16;4995211;28;20061;-81
2021/12/26 02:28:20;;;;;;;6.72;6.03;;;;;;;19.34;42.38;100251.94;4995079;28;20061;-79
2021/12/26 02:30:50;;;;;;;6.20;5.60;;;;;;;19.34;42.59;100251.94;4996052;28;20058;-79
2021/12/26 02:33:18;;;;;;;6.13;5.53;;;;;;;19.35;42.49;100254.47;4995590;28;20050;-79
2021/12/26 02:35:48;;;;;;;5.57;4.95;;;;;;;19.34;42.43;100251.94;4994777;28;20449;-80
2021/12/26 02:38:17;;;;;;;6.40;5.80;;;;;;;19.36;42.26;100249.94;4978202;28;20536;-80
2021/12/26 02:40:47;;;;;;;5.78;5.05;;;;;;;19.36;42.43;100250.78;4979053;28;20445;-81
2021/12/26 02:43:18;;;;;;;5.68;5.18;;;;;;;19.36;42.17;100248.09;4995611;28;20050;-81
2021/12/26 02:45:46;;;;;;;6.00;5.40;;;;;;;19.36;42.31;100244.59;4995924;28;20054;-81
2021/12/26 02:48:14;;;;;;;6.93;5.85;;;;;;;19.36;42.40;100233.84;4995167;28;20057;-81
2021/12/26 02:50:44;;;;;;;6.78;5.97;;;;;;;19.35;42.42;100233.00;5003095;28;20050;-82
2021/12/26 02:53:20;;;;;;;5.70;5.20;;;;;;;19.34;42.21;100242.06;4997686;28;20054;-81
2021/12/26 02:55:49;;;;;;;6.65;6.05;;;;;;;19.35;42.36;100234.84;5018320;28;20049;-80
2021/12/26 02:58:16;;;;;;;6.82;5.85;;;;;;;19.36;42.17;100233.84;5018364;28;20049;-80
2021/12/26 03:00:48;;;;;;;5.75;5.15;;;;;;;19.36;42.18;100231.16;5018735;28;20049;-80
2021/12/26 03:03:16;;;;;;;5.70;5.20;;;;;;;19.36;42.32;100239.22;5052147;28;20049;-79
2021/12/26 03:05:45;;;;;;;6.18;5.57;;;;;;;19.35;42.42;100240.22;5036813;28;20374;-80
2021/12/26 03:08:18;;;;;;;5.65;5.10;;;;;;;19.36;42.25;100239.22;5034674;28;20057;-79
2021/12/26 03:10:47;;;;;;;6.18;5.63;;;;;;;19.36;42.13;100263.38;5035679;28;20052;-79
2021/12/26 03:13:15;;;;;;;5.75;5.22;;;;;;;19.37;42.10;100284.72;5018191;28;20049;-80
2021/12/26 03:15:43;;;;;;;6.10;5.50;;;;;;;19.36;42.25;100277.63;5036262;28;20072;-80
2021/12/26 03:18:11;;;;;;;6.13;5.53;;;;;;;19.37;42.19;100273.97;5018344;28;20057;-80
2021/12/26 03:20:42;;;;;;;5.57;5.00;;;;;;;19.38;42.18;100272.97;5036582;28;20058;-80
2021/12/26 03:23:12;;;;;;;6.35;5.50;;;;;;;19.39;42.24;100284.56;5018406;28;20050;-80
2021/12/26 03:25:42;;;;;;;5.78;5.28;;;;;;;19.38;42.29;100282.88;5018851;28;20104;-81
2021/12/26 03:28:10;;;;;;;5.68;5.18;;;;;;;19.37;42.33;100265.09;5036598;28;20046;-81
2021/12/26 03:30:38;;;;;;;5.47;4.97;;;;;;;19.40;42.28;100264.78;5018006;28;20060;-82
2021/12/26 03:33:09;;;;;;;5.63;5.13;;;;;;;19.40;42.22;100262.09;5018603;28;20049;-81
2021/12/26 03:35:38;;;;;;;5.20;4.70;;;;;;;19.40;42.44;100257.56;5017241;28;20069;-81
2021/12/26 03:38:08;;;;;;;6.10;4.82;;;;;;;19.40;42.50;100262.09;5017039;28;20049;-81
2021/12/26 03:41:01;;;;;;;7.10;5.57;;;;;;;19.41;42.55;100264.66;5032480;28;20076;-80
2021/12/26 03:43:29;;;;;;;5.43;4.93;;;;;;;19.41;42.66;100267.34;5018285;28;20049;-86
2021/12/26 03:45:57;;;;;;;5.05;4.55;;;;;;;19.42;42.43;100268.16;5035964;28;20072;-80
2021/12/26 03:48:26;;;;;;;5.55;5.05;;;;;;;19.42;42.67;100260.13;5017603;28;20489;-81
2021/12/26 03:50:57;;;;;;;5.65;4.80;;;;;;;19.42;42.44;100258.28;5018947;28;20054;-81
2021/12/26 03:53:25;;;;;;;6.30;5.40;;;;;;;19.41;42.57;100256.59;5051051;28;20076;-86
2021/12/26 03:55:52;;;;;;;6.22;5.63;;;;;;;19.42;42.87;100254.75;5001680;28;20516;-80
2021/12/26 03:58:20;;;;;;;5.50;5.00;;;;;;;19.43;42.83;100253.75;5016492;28;20413;-80
2021/12/26 04:00:49;;;;;;;6.28;4.93;;;;;;;19.42;42.77;100260.13;5017315;28;20053;-80
2021/12/26 04:03:20;;;;;;;;;;;;;;;19.43;42.72;100261.81;5017194;28;20485;-82
2021/12/26 04:05:57;;;;;;;6.60;5.85;;;;;;;19.42;42.71;100257.44;5050144;28;19921;-80
2021/12/26 04:08:26;;;;;;;6.07;5.55;;;;;;;19.42;42.66;100244.00;5017462;28;20052;-80
2021/12/26 04:10:53;;;;;;;5.38;4.88;;;;;;;19.41;42.84;100250.38;5017676;28;20057;-81
2021/12/26 04:13:21;;;;;;;6.18;5.45;;;;;;;19.40;42.74;100238.78;5017145;28;20528;-81
2021/12/26 04:15:49;;;;;;;5.97;5.38;;;;;;;19.40;42.64;100240.63;5022927;28;20051;-81
2021/12/26 04:18:16;;;;;;;5.15;4.65;;;;;;;19.39;42.69;100237.09;5021358;28;20052;-80
2021/12/26 04:20:44;;;;;;;4.93;4.43;;;;;;;19.39;42.69;100239.78;5049754;28;20049;-82
2021/12/26 04:23:14;;;;;;;5.45;4.93;;;;;;;19.39;42.68;100244.31;5017636;28;20049;-83
2021/12/26 04:25:43;;;;;;;6.93;4.80;;;;;;;19.37;42.64;100252.50;5049813;28;20053;-83
2021/12/26 04:28:11;;;;;;;5.40;4.90;;;;;;;19.38;42.73;100259.56;5017270;28;20050;-83
2021/12/26 04:30:40;;;;;;;5.50;5.00;;;;;;;19.37;42.71;100270.47;5017064;28;20064;-82
2021/12/26 04:33:08;;;;;;;5.70;5.20;;;;;;;19.36;42.71;100274.09;5017763;28;20053;-83
2021/12/26 04:35:36;;;;;;;5.50;4.93;;;;;;;19.35;42.86;100273.25;5017449;28;20519;-83
2021/12/26 04:38:03;;;;;;;5.65;5.15;;;;;;;19.35;42.55;100267.91;5033713;28;20049;-83
2021/12/26 04:40:31;;;;;;;5.43;4.75;;;;;;;19.35;42.83;100270.59;5048793;28;20064;-83
2021/12/26 04:43:23;;;;;;;5.57;4.45;;;;;;;19.34;42.93;100271.59;5049805;28;20500;-83
2021/12/26 04:46:13;;;;;;;5.28;4.78;;;;;;;19.34;42.76;100268.91;5030331;28;20056;-83
2021/12/26 04:48:59;;;;;;;5.47;4.97;;;;;;;19.33;42.85;100247.59;4995489;28;20409;-83
2021/12/26 04:51:26;;;;;;;5.32;4.82;;;;;;;19.33;42.83;100250.25;4994631;28;20525;-83
2021/12/26 04:53:58;;;;;;;5.90;5.40;;;;;;;19.30;42.87;100245.19;4978123;28;20061;-81
2021/12/26 04:56:25;;;;;;;5.50;4.80;;;;;;;19.29;42.57;100247.03;4993973;28;20413;-81
2021/12/26 04:58:53;;;;;;;5.18;4.68;;;;;;;19.30;42.85;100242.50;4994288;28;20050;-82
2021/12/26 05:01:20;;;;;;;5.45;4.95;;;;;;;19.29;42.60;100230.06;4994277;28;20057;-82
2021/12/26 05:03:48;;;;;;;5.32;4.82;;;;;;;19.26;42.80;100221.31;4993321;28;20058;-83
2021/12/26 05:06:16;;;;;;;6.18;5.57;;;;;;;19.26;42.91;100231.19;4994273;28;20046;-81
2021/12/26 05:08:43;;;;;;;5.38;4.88;;;;;;;19.25;42.81;100237.56;4992305;28;20050;-81
2021/12/26 05:11:11;;;;;;;5.60;5.10;;;;;;;19.24;43.01;100244.78;4993257;28;20061;-81
2021/12/26 05:13:38;;;;;;;6.53;4.95;;;;;;;19.25;42.92;100234.88;4993916;28;20061;-82
2021/12/26 05:16:06;;;;;;;5.03;4.53;;;;;;;19.25;42.81;100227.69;4978361;28;20058;-81
2021/12/26 05:18:34;;;;;;;6.68;5.30;;;;;;;19.24;42.94;100231.38;4996115;28;20058;-81
2021/12/26 05:21:04;;;;;;;5.60;5.10;;;;;;;19.23;42.90;100228.81;4993314;28;20051;-82
2021/12/26 05:23:32;;;;;;;5.63;4.85;;;;;;;19.24;42.94;100222.44;4993276;28;20521;-82
2021/12/26 05:26:00;;;;;;;5.18;4.68;;;;;;;19.22;43.08;100233.31;4992955;28;20061;-82
2021/12/26 05:28:31;;;;;;;6.03;5.43;;;;;;;19.23;43.00;100226.97;4992731;28;20138;-81
2021/12/26 05:30:58;;;;;;;5.45;4.95;;;;;;;19.22;43.03;100233.31;4992134;28;20422;-81
2021/12/26 05:33:30;;;;;;;5.57;5.00;;;;;;;19.23;43.18;100234.16;4992517;28;20054;-81
2021/12/26 05:35:59;;;;;;;5.40;4.90;;;;;;;19.23;42.94;100242.22;4976349;28;20046;-81
2021/12/26 05:38:30;;;;;;;5.22;4.72;;;;;;;19.22;42.87;100233.31;4992619;28;20058;-81
2021/12/26 05:40:57;;;;;;;5.85;5.32;;;;;;;19.24;42.84;100228.69;4993119;28;20101;-81
2021/12/26 05:43:26;;;;;;;5.20;4.70;;;;;;;19.25;42.77;100235.72;4989973;28;20054;-82
2021/12/26 05:45:54;;;;;;;5.22;4.72;;;;;;;19.28;42.81;100234.56;4990187;28;20055;-83
2021/12/26 05:48:23;;;;;;;5.20;4.70;;;;;;;19.29;42.90;100232.75;4989881;28;20139;-83
2021/12/26 05:50:52;;;;;;;5.90;5.40;;;;;;;19.29;42.82;100238.13;5005947;28;20491;-83
2021/12/26 05:53:38;;;;;;;5.40;4.90;;;;;;;19.29;42.66;100228.25;4993830;28;20521;-82
2021/12/26 05:56:05;;;;;;;5.22;4.72;;;;;;;19.30;42.63;100229.91;4993379;28;20051;-83
2021/12/26 05:58:35;;;;;;;5.00;4.60;;;;;;;19.32;42.58;100235.13;4992473;28;20091;-82
2021/12/26 06:01:03;;;;;;;4.55;4.15;;;;;;;19.33;42.73;100221.59;4992326;28;20046;-82
2021/12/26 06:03:33;;;;;;;4.85;4.45;;;;;;;19.32;42.66;100232.44;4992513;28;20061;-83
2021/12/26 06:06:00;;;;;;;4.60;4.20;;;;;;;19.33;42.58;100228.78;4993961;28;20054;-82
2021/12/26 06:08:36;;;;;;;4.43;4.03;;;;;;;19.33;42.62;100223.44;4993394;28;20061;-83
2021/12/26 06:11:04;;;;;;;4.40;4.00;;;;;;;19.33;42.65;100224.28;4994155;28;20050;-82
2021/12/26 06:13:33;;;;;;;4.97;4.50;;;;;;;19.33;42.47;100218.91;4993933;28;20054;-82
2021/12/26 06:16:01;;;;;;;5.00;4.50;;;;;;;19.32;42.73;100221.72;4995243;28;20050;-82
2021/12/26 06:18:28;;;;;;;5.22;4.72;;;;;;;19.31;42.36;100220.88;4993340;28;20061;-82
2021/12/26 06:21:14;;;;;;;5.35;4.85;;;;;;;19.32;42.68;100227.91;5000717;28;20061;-82
2021/12/26 06:23:43;;;;;;;5.47;4.97;;;;;;;19.33;42.47;100229.63;4994262;28;20050;-82
2021/12/26 06:26:25;;;;;;;6.13;4.57;;;;;;;19.33;42.51;100232.31;5000715;28;20065;-82
2021/12/26 06:28:53;;;;;;;4.10;3.70;;;;;;;19.32;42.54;100233.28;4991773;28;20054;-81
2021/12/26 06:31:41;;;;;;;4.80;4.30;;;;;;;19.33;42.28;100239.53;4992044;28;20058;-81
2021/12/26 06:34:27;;;;;;;5.32;4.80;;;;;;;19.32;42.54;100237.81;4981038;28;20077;-81
2021/12/26 06:37:12;;;;;;;5.00;4.50;;;;;;;19.32;42.52;100251.22;5023292;28;20057;-81
2021/12/26 06:40:08;;;;;;;5.07;4.57;;;;;;;19.33;42.51;100258.31;4953001;29;20063;-80
2021/12/26 06:42:54;;;;;;;4.70;4.22;;;;;;;19.32;42.44;100264.66;4922835;29;20067;-80
2021/12/26 06:45:40;;;;;;;5.05;4.60;;;;;;;19.32;42.60;100259.28;4937698;29;20075;-81
2021/12/26 06:48:27;;;;;;;5.10;4.60;;;;;;;19.31;42.46;100262.97;4950800;29;20073;-81
2021/12/26 06:50:55;;;;;;;5.57;4.82;;;;;;;19.29;42.52;100257.75;4955894;28;20531;-81
2021/12/26 06:53:22;;;;;;;5.38;4.57;;;;;;;19.28;42.58;100253.34;4963340;28;20046;-82
2021/12/26 06:55:50;;;;;;;5.03;4.53;;;;;;;19.29;42.67;100254.22;4959889;28;20162;-81
2021/12/26 06:58:18;;;;;;;5.05;4.45;;;;;;;19.28;42.75;100253.34;4960182;28;20414;-81
2021/12/26 07:00:46;;;;;;;4.88;4.38;;;;;;;19.29;42.80;100262.28;4975634;28;20084;-83
2021/12/26 07:03:14;;;;;;;5.32;4.57;;;;;;;19.29;42.49;100257.75;4958834;28;20066;-82
2021/12/26 07:05:41;;;;;;;5.30;4.80;;;;;;;19.27;42.57;100265.94;4975053;28;20084;-81
2021/12/26 07:08:12;;;;;;;5.60;4.93;;;;;;;19.26;42.87;100266.94;4975795;28;20050;-82
2021/12/26 07:10:49;;;;;;;5.20;4.70;;;;;;;19.26;42.70;100266.09;4974847;28;20053;-81
2021/12/26 07:13:17;;;;;;;5.20;4.70;;;;;;;19.26;42.64;100271.47;4975081;28;20054;-81
2021/12/26 07:15:47;;;;;;;4.88;4.47;;;;;;;19.25;42.64;100276.00;4975151;28;20058;-82
2021/12/26 07:18:15;;;;;;;5.35;4.85;;;;;;;19.25;42.71;100285.88;5011192;28;20050;-82
2021/12/26 07:20:44;;;;;;;4.97;4.47;;;;;;;19.25;42.64;100285.88;5011804;28;20116;-82
2021/12/26 07:23:17;;;;;;;;;;;;;;;19.24;42.73;100292.22;5003514;28;20065;-83
2021/12/26 07:25:46;;;;;;;5.50;4.68;;;;;;;19.23;42.72;100299.41;5011874;28;20385;-83
2021/12/26 07:28:17;;;;;;;5.00;4.50;;;;;;;19.23;42.72;100298.56;5011108;28;20055;-83
2021/12/26 07:30:59;;;;;;;5.22;4.72;;;;;;;19.22;42.70;100292.38;5015795;28;20426;-82
2021/12/26 07:33:27;;;;;;;4.82;4.32;;;;;;;19.21;42.70;100300.56;5011806;28;20081;-81
2021/12/26 07:36:00;;;;;;;5.10;4.28;;;;;;;19.20;42.82;100299.72;5011349;28;20054;-81
2021/12/26 07:38:53;;;;;;;4.72;4.25;;;;;;;19.19;42.76;100306.06;4955721;28;20055;-81
2021/12/26 07:41:30;;;;;;;5.50;5.00;;;;;;;19.17;42.70;100313.44;4939502;29;20051;-82
2021/12/26 07:43:59;;;;;;;5.35;4.85;;;;;;;19.19;42.63;100307.91;4939496;29;20051;-82
2021/12/26 07:46:52;;;;;;;5.03;4.53;;;;;;;19.19;42.77;100313.28;4954767;29;20127;-81
2021/12/26 07:49:21;;;;;;;5.03;4.60;;;;;;;19.18;42.87;100316.97;4938422;29;20055;-82
2021/12/26 07:52:18;;;;;;;4.95;4.45;;;;;;;19.15;42.86;100323.44;4978039;28;20194;-82
2021/12/26 07:55:04;;;;;;;4.93;4.43;;;;;;;19.15;42.76;100323.44;4967349;28;20074;-81
2021/12/26 07:58:01;;;;;;;5.60;4.97;;;;;;;19.17;42.77;100326.00;4955044;28;20199;-81
2021/12/26 08:00:47;;;;;;;5.13;4.57;;;;;;;19.16;42.58;100326.97;4961826;28;20407;-81
2021/12/26 08:03:37;;;;;;;5.38;4.88;;;;;;;19.15;42.65;100339.53;4925598;29;20071;-81
2021/12/26 08:06:23;;;;;;;4.40;4.00;;;;;;;19.14;42.63;100337.84;4961637;28;20152;-82
2021/12/26 08:08:53;;;;;;;5.22;4.63;;;;;;;19.15;42.78;100334.19;4955601;29;20059;-82
2021/12/26 08:11:21;;;;;;;5.15;4.65;;;;;;;19.14;42.62;100332.50;4939337;29;20047;-80
2021/12/26 08:13:50;;;;;;;5.25;4.75;;;;;;;19.13;42.97;100335.31;4938750;29;20055;-82
2021/12/26 08:16:18;;;;;;;5.45;4.88;;;;;;;19.13;42.83;100330.81;4954945;29;20051;-83
2021/12/26 08:18:46;;;;;;;5.32;4.80;;;;;;;19.15;42.66;100339.53;4954929;28;20075;-82
2021/12/26 08:21:13;;;;;;;7.45;4.63;;;;;;;19.16;42.82;100337.69;4955397;29;20151;-83
2021/12/26 08:23:41;;;;;;;5.40;4.90;;;;;;;19.18;42.77;100341.09;4955806;29;20054;-82
2021/12/26 08:26:09;;;;;;;5.00;4.50;;;;;;;19.19;42.49;100346.31;4954865;29;20051;-83
2021/12/26 08:28:36;;;;;;;5.00;4.50;;;;;;;19.19;42.75;100343.63;4955016;29;20059;-82
2021/12/26 08:31:04;;;;;;;4.78;4.32;;;;;;;19.21;42.64;100349.72;4954357;28;20055;-83
2021/12/26 08:33:31;;;;;;;4.90;4.40;;;;;;;19.21;42.70;100344.34;4957308;28;20162;-82
2021/12/26 08:35:59;;;;;;;4.30;3.90;;;;;;;19.23;42.58;100357.63;4995474;28;20402;-82
2021/12/26 08:38:26;;;;;;;5.78;4.97;;;;;;;19.23;42.57;100361.13;4993445;28;20065;-82
2021/12/26 08:40:56;;;;;;;5.28;4.70;;;;;;;19.24;42.42;100352.13;5000302;28;20394;-81
2021/12/26 08:43:24;;;;;;;5.20;4.68;;;;;;;19.24;42.62;100357.50;5003570;28;20045;-82
2021/12/26 08:45:52;;;;;;;5.60;5.05;;;;;;;19.23;42.58;100369.19;5047042;28;20077;-81
2021/12/26 08:48:20;;;;;;;5.22;4.72;;;;;;;19.24;42.82;100365.53;5027824;28;20054;-81
2021/12/26 08:50:48;;;;;;;5.82;5.22;;;;;;;19.25;42.52;100374.44;5036133;28;20041;-81
2021/12/26 08:53:16;;;;;;;5.43;4.93;;;;;;;19.25;42.54;100374.44;5035482;28;20058;-81
2021/12/26 08:55:44;;;;;;;5.40;4.90;;;;;;;19.23;42.54;100371.03;5024035;28;20535;-82
2021/12/26 08:58:11;;;;;;;5.05;4.57;;;;;;;19.24;42.63;100373.59;5034972;28;20046;-80
2021/12/26 09:00:39;;;;;;;6.95;4.78;;;;;;;19.23;42.62;100368.34;5034981;28;20049;-82
2021/12/26 09:03:07;;;;;;;5.28;4.78;;;;;;;19.24;42.48;100376.28;5034115;28;20400;-81
2021/12/26 09:05:34;;;;;;;5.50;5.00;;;;;;;19.22;43.16;100372.03;5034830;28;20045;-80
2021/12/26 09:08:02;;;;;;;5.80;5.20;;;;;;;19.21;42.87;100378.41;5034015;28;20492;-81
2021/12/26 09:10:30;;;;;;;5.32;4.82;;;;;;;19.21;42.81;100373.88;5033764;28;20041;-80
2021/12/26 09:12:57;;;;;;;5.03;4.30;;;;;;;19.19;43.64;100378.50;5016189;28;20049;-80
2021/12/26 09:15:25;;;;;;;5.38;4.88;;;;;;;19.15;44.66;100378.94;5033910;28;20048;-80
2021/12/26 09:17:52;;;;;;;7.80;5.38;;;;;;;19.10;44.42;100383.91;5016639;28;20053;-80
2021/12/26 09:20:21;;;;;;;5.53;4.95;;;;;;;19.07;44.85;100382.34;5033825;28;20041;-80
2021/12/26 09:22:48;;;;;;;7.32;4.70;;;;;;;19.02;44.75;100380.06;5033798;28;20535;-80
2021/12/26 09:25:15;;;;;;;10.75;9.75;;;;;;;18.99;42.79;100377.66;5016596;28;20485;-80
2021/12/26 09:27:43;;;;;;;5.95;5.38;;;;;;;18.94;44.48;100384.44;5015671;28;20497;-80
2021/12/26 09:30:12;;;;;;;5.65;5.15;;;;;;;18.93;44.40;100380.09;5015589;28;20075;-79
2021/12/26 09:32:40;;;;;;;6.07;5.47;;;;;;;18.94;44.36;100384.44;5016260;28;20076;-80
2021/12/26 09:35:08;;;;;;;5.97;5.47;;;;;;;18.94;44.28;100379.94;5034040;28;20053;-81
2021/12/26 09:37:36;;;;;;;5.38;4.88;;;;;;;18.95;44.36;100372.72;5016199;28;20049;-81
2021/12/26 09:40:04;;;;;;;5.50;5.00;;;;;;;18.96;44.63;100372.59;5037289;28;20052;-91
2021/12/26 09:42:33;;;;;;;6.05;5.00;;;;;;;18.97;44.48;100368.09;5001636;28;20132;-94
2021/12/26 09:45:01;;;;;;;5.60;5.10;;;;;;;18.99;44.39;100374.13;5036769;28;20046;-93
2021/12/26 09:47:29;;;;;;;6.07;4.80;;;;;;;19.00;44.40;100370.50;5001771;28;20064;-95
2021/12/26 09:49:57;;;;;;;6.03;5.13;;;;;;;18.98;44.26;100364.41;5016169;28;20053;-80
2021/12/26 09:52:25;;;;;;;5.38;4.88;;;;;;;18.97;44.29;100362.72;5033585;28;20396;-81
2021/12/26 09:54:52;;;;;;;6.35;5.75;;;;;;;18.97;44.37;100365.41;5033557;28;20044;-79
2021/12/26 09:57:19;;;;;;;7.50;6.20;;;;;;;18.97;44.16;100366.25;5022378;28;20041;-79
2021/12/26 09:59:48;;;;;;;6.70;5.55;;;;;;;18.97;44.23;100358.19;5016574;28;20061;-79
2021/12/26 10:02:18;;;;;;;6.88;6.18;;;;;;;18.96;44.13;100352.97;5032968;28;20482;-79
2021/12/26 10:04:50;;;;;;;12.40;9.85;;;;;;;18.93;43.35;100342.53;5029462;28;20052;-80
2021/12/26 10:07:23;;;;;;;12.57;11.27;;;;;;;18.89;42.72;100341.13;5032787;28;20050;-79
2021/12/26 10:09:52;;;;;;;12.23;11.02;;;;;;;18.84;42.74;100346.91;5032756;28;20042;-79
2021/12/26 10:12:21;;;;;;;9.48;8.55;;;;;;;18.81;42.98;100343.66;5032459;28;20045;-79
2021/12/26 10:14:51;;;;;;;9.35;8.38;;;;;;;18.82;43.22;100348.03;5032646;28;20369;-79
2021/12/26 10:17:26;;;;;;;10.32;9.32;;;;;;;18.78;43.03;100345.63;5046968;28;20045;-79
2021/12/26 10:20:10;;;;;;;9.95;9.07;;;;;;;18.78;43.31;100342.94;5035265;28;20424;-78
2021/12/26 10:22:38;;;;;;;11.52;9.43;;;;;;;18.76;42.82;100347.59;5036408;28;20049;-78
2021/12/26 10:25:11;;;;;;;12.95;10.77;;;;;;;18.74;42.86;100352.25;5036281;28;20049;-78
2021/12/26 10:27:41;;;;;;;9.32;8.32;;;;;;;18.75;42.95;100345.03;5032206;28;20049;-81
2021/12/26 10:30:15;;;;;;;17.98;16.08;;;;;;;18.54;41.49;100345.97;5006838;28;20054;-78
2021/12/26 10:32:43;;;;;;;20.55;18.55;;;;;;;18.15;42.36;100345.03;4998455;28;20046;-78
2021/12/26 10:35:17;;;;;;;18.88;16.42;;;;;;;17.89;42.71;100343.81;5050499;28;20049;-78
2021/12/26 10:37:52;;;;;;;16.60;14.98;;;;;;;17.85;43.19;100348.56;5017432;28;20053;-78
2021/12/26 10:40:26;;;;;;;14.02;10.23;;;;;;;17.97;45.34;100354.69;5017953;28;20409;-78
2021/12/26 10:43:02;;;;;;;12.68;10.57;;;;;;;18.09;44.90;100347.41;5017780;28;20432;-78
2021/12/26 10:45:32;;;;;;;13.50;10.02;;;;;;;18.16;45.08;100357.44;5017193;28;20056;-79
2021/12/26 10:48:06;;;;;;;12.27;8.75;;;;;;;18.24;45.35;100354.94;5050850;28;20053;-80
2021/12/26 10:50:36;;;;;;;;;;;;;;;18.30;45.40;100353.53;5036338;28;20060;-79
2021/12/26 10:53:07;;;;;;;9.32;8.02;;;;;;;18.35;45.22;100345.06;5035529;28;19928;-79
2021/12/26 10:55:51;;;;;;;9.27;7.55;;;;;;;18.39;45.02;100343.81;5036002;28;20489;-79
2021/12/26 10:58:21;;;;;;;11.68;7.47;;;;;;;18.44;44.84;100344.28;5032622;28;20049;-79
2021/12/26 11:00:52;;;;;;;9.25;7.28;;;;;;;18.47;44.47;100331.44;5033431;28;20050;-79
2021/12/26 11:03:27;;;;;;;8.77;7.20;;;;;;;18.49;44.38;100337.50;5038968;28;20045;-79
2021/12/26 11:06:06;;;;;;;10.05;7.07;;;;;;;18.51;44.37;100324.81;5056786;28;20048;-79
2021/12/26 11:08:38;;;;;;;7.90;7.10;;;;;;;18.53;44.17;100327.34;5019228;28;20064;-79
2021/12/26 11:11:16;;;;;;;8.13;7.32;;;;;;;18.54;44.05;100318.31;5035447;28;20378;-84
2021/12/26 11:13:45;;;;;;;8.40;6.60;;;;;;;18.58;44.40;100314.38;5035980;28;20050;-81
2021/12/26 11:16:15;;;;;;;7.72;7.03;;;;;;;18.62;44.57;100309.59;5035833;28;20057;-79
2021/12/26 11:18:52;;;;;;;8.57;6.22;;;;;;;18.63;44.47;100298.72;5037237;28;20049;-78
2021/12/26 11:21:20;;;;;;;9.82;6.88;;;;;;;18.67;44.41;100307.31;5035150;28;20496;-78
2021/12/26 11:23:47;;;;;;;9.93;6.38;;;;;;;18.70;44.64;100307.09;5049091;28;20048;-79
2021/12/26 11:26:19;;;;;;;8.40;7.15;;;;;;;18.69;44.44;100308.91;5035080;28;20068;-78
2021/12/26 11:28:52;;;;;;;9.53;7.13;;;;;;;18.70;44.65;100313.28;5034226;28;20480;-78
2021/12/26 11:31:28;;;;;;;11.60;6.53;;;;;;;18.70;44.74;100315.97;5033965;28;20507;-83
2021/12/26 11:34:04;;;;;;;8.85;7.10;;;;;;;18.70;44.70;100312.44;5035451;28;20349;-79
2021/12/26 11:36:32;;;;;;;9.48;7.13;;;;;;;18.73;44.56;100307.66;5032956;28;20068;-79
2021/12/26 11:39:21;;;;;;;9.05;7.18;;;;;;;18.75;44.74;100310.19;5034494;28;20484;-79
2021/12/26 11:42:34;;;;;;;7.18;6.45;;;;;;;18.76;44.77;100311.91;5048913;28;20405;-78
2021/12/26 11:45:27;;;;;;;7.45;6.75;;;;;;;18.75;44.73;100308.34;5035641;28;20049;-79
2021/12/26 11:48:51;;;;;;;8.13;6.72;;;;;;;18.76;44.84;100304.69;5037775;28;20588;-79